ADDS METAR Data INFO
IDs: Format: Raw Decoded Include TAF

Data at: 0347 UTC 20 Feb 2018

KHRI 200253Z AUTO 19008KT 10SM CLR M07/M11 A3021 RMK AO2 SLP239 T10671111 53004 $
KHRI 200153Z AUTO 23006KT CLR M04/M12 A3020 RMK AO2 SLP235 T10441117 $
KHRI 200053Z AUTO 21008KT CLR M02/M12 A3019 RMK AO2 SLP231 T10221122 $
KHRI 192353Z AUTO 24005KT 10SM FEW047 BKN060 M02/M12 A3020 RMK AO2 SLP233 T10171122 11006 21028 53001 $
KHRI 192253Z AUTO 25008KT 10SM CLR M02/M13 A3019 RMK AO2 SLP232 T10171128 $
KHRI 192153Z AUTO 27007KT 10SM OVC060 M02/M14 A3019 RMK AO2 SLP232 T10171144 $
KHRI 192053Z AUTO 30006KT 10SM BKN060 M02/M14 A3019 RMK AO2 SLP232 T10171144 50003
KHRI 191953Z AUTO 33009KT 10SM CLR M01/M16 A3020 RMK AO2 SLP232 T10111156
KHRI 191853Z AUTO 34006KT 10SM FEW085 M02/M15 A3020 RMK AO2 SLP232 T10171150
KHRI 191753Z AUTO VRB03KT 10SM CLR M03/M16 A3018 RMK AO2 SLP228 T10281161 11028 21072 51019
KHRI 191653Z AUTO 02006KT 10SM CLR M03/M17 A3018 RMK AO2 SLP226 T10331167 $
KHRI 191553Z AUTO 36004KT 10SM BKN095 M05/M14 A3016 RMK AO2 SLP219 T10501144 $
KHRI 191453Z AUTO 04003KT 10SM SCT095 M07/M14 A3013 RMK AO2 SLP209 T10671144 51026 $
KHRI 191353Z AUTO 01007KT 10SM FEW095 M06/M14 A3011 RMK AO2 SLP202 T10611144 $
KHRI 191253Z AUTO 04010KT 10SM SCT065 OVC090 M04/M14 A3008 RMK AO2 SLP191 T10441139 $
KHRI 191153Z AUTO 03008KT 10SM BKN070 OVC090 M04/M13 A3005 RMK AO2 SLP181 T10391128 11017 21044 51026 $
KHRI 191053Z AUTO 04008KT 10SM OVC075 M04/M13 A3003 RMK AO2 SLP173 T10391133 $
KHRI 190953Z AUTO 02009KT 10SM OVC080 M03/M13 A3000 RMK AO2 SLP165 T10331128 $
KHRI 190853Z AUTO 03016G20KT 10SM OVC080 M03/M12 A2997 RMK AO2 SLP153 T10281122 51030 $
KHRI 190753Z AUTO 03014KT 10SM BKN080 BKN110 M03/M12 A2995 RMK AO2 PK WND 03026/0700 SLP145 T10281122 400671028 $
KHRI 190653Z AUTO 02018G24KT 10SM OVC055 M02/M11 A2991 RMK AO2 PK WND 02027/0613 SLP134 T10221106 $
KHRI 190553Z AUTO 02019G28KT 10SM OVC060 M02/M10 A2988 RMK AO2 PK WND 01028/0551 SLP123 60000 T10171100 10028 21017 53035 $
KHRI 190453Z AUTO 01015KT 10SM OVC055 M01/M08 A2984 RMK AO2 PK WND 03028/0403 SLP110 T10111083 $
KHRI 190353Z AUTO 03016G23KT 10SM OVC050 M01/M06 A2981 RMK AO2 PK WND 04026/0336 SLP098 T10111056 $
KHRI 190253Z AUTO 04020G25KT 10SM BKN065 OVC100 M01/M03 A2977 RMK AO2 SNE16 SLP087 P0000 60000 T10061033 53020 $
KHRI 190220Z AUTO 04016KT 9SM FEW017 BKN044 OVC065 00/M02 A2976 RMK AO2 SNE16 P0000 T00001022 $
KHRI 190204Z AUTO 04015G21KT 3SM -SN BR OVC016 01/M01 A2976 RMK AO2 P0000 T00061011 $
KHRI 190153Z AUTO 03017G24KT 2 1/2SM -SN BR OVC014 01/M01 A2975 RMK AO2 SNB36 SLP078 P0000 T00111011 $
KHRI 190110Z AUTO 02012KT 10SM SCT020 BKN026 OVC038 02/M01 A2973 RMK AO2 T00221006 $
KHRI 190053Z AUTO 04008KT 10SM FEW024 BKN043 OVC055 02/M01 A2973 RMK AO2 SNE35 SLP071 P0000 T00221006 $
KHRI 190040Z AUTO 04010KT 9SM FEW019 BKN035 OVC055 02/M01 A2973 RMK AO2 SNE35 P0000 T00171006 $
KHRI 190017Z AUTO 03010KT 3SM -SN BR OVC019 02/M01 A2972 RMK AO2 P0000 T00171006 $
KHRI 190010Z AUTO 03011G20KT 1 3/4SM -SN OVC019 02/M01 A2971 RMK AO2 P0000 T00221011 $
KHRI 182353Z AUTO 04012KT 8SM -SN SCT017 BKN026 OVC048 03/M01 A2971 RMK AO2 SNB51 SLP065 P0000 60000 T00281006 10067 20028 53011 $
KHRI 182253Z AUTO 02011KT 10SM FEW033 SCT049 BKN060 04/M01 A2968 RMK AO2 WSHFT 2232 SLP053 T00441011 $
KHRI 182153Z AUTO 31009KT 10SM CLR 06/M03 A2967 RMK AO2 SLP047 T00611033 $
KHRI 182053Z AUTO 28014KT 10SM FEW120 06/M04 A2967 RMK AO2 SLP047 T00611039 58006 $
KHRI 181953Z AUTO 26010KT 10SM FEW047 FEW055 BKN100 06/M04 A2967 RMK AO2 SLP050 T00611039 $
KHRI 181853Z AUTO 25010KT 10SM CLR 05/M04 A2968 RMK AO2 SLP053 T00501039 $
KHRI 181753Z AUTO 25015KT 10SM FEW110 04/M04 A2968 RMK AO2 PK WND 25030/1716 SLP054 T00391039 10056 20017 51013 $
KHRI 181653Z AUTO 25017G23KT CLR 04/M03 A2967 RMK AO2 SLP047 T00441033 $
KHRI 181553Z AUTO 24017KT 10SM CLR 02/M02 A2967 RMK AO2 SLP049 T00171022 $